Onweer radar Meer informatie blitzortung!


Regen radar Meer informatie rain snow radar


Andere websites:

Template documentation
and downloads

And another site

Weather-Template Info-Forum

Webcam-Havenmond

Webcam-Havenkantoor

Webcam-Werkhaven

Webcam-Westhaven



Het weer levert geen direct gevaar op.    Er zijn geen waarschuwingen afgegeven.

METAR rapporten vliegvelden

   
EBAW - Antwerp
Gewijzigd: 18-08-2018 08:20
Helder  
Helder  
   Wind: ZW 14.8 km/h
Wind: ZW 14.8 km/h
Temperatuur: 16°C
Dauwpunt: 12°C
Vochtigheid: 77%
Barometer: 1022 hPa
Zicht: meer dan 10 km
Bewolking: Helder
EBAW 180620Z 22008KT CAVOK 16/12 Q1022 NOSIG
EBLG - Li├Ęge
Gewijzigd: 18-08-2018 08:20
Helder  
Helder  
   Wind: Zuiden 7.4 km/h
Wind: Zuiden 7.4 km/h
Temperatuur: 14°C
Dauwpunt: 12°C
Vochtigheid: 88%
Barometer: 1023 hPa
Zicht: meer dan 10 km
Bewolking: Helder
EBLG 180620Z 17004KT CAVOK 14/12 Q1023 NOSIG
EBCV - Mons/Bergen
Gewijzigd: 18-08-2018 08:25
Licht bewolkt  
Licht bewolkt  
   Wind: ZW 11.1 km/h
Wind: ZW 11.1 km/h
Temperatuur: 15°C
Dauwpunt: 13°C
Vochtigheid: 88%
Barometer: 1023 hPa
Bewolking: Licht bewolkt
Zicht: meer dan 10 km
Bewolking: Licht bewolkt 12000 ft
EBCV 180625Z AUTO 22006KT 9999 FEW120/// 15/13 Q1023 BLU
EHBK - Maastricht
Gewijzigd: 18-08-2018 08:25
Gedeeltelijk bewolkt  
Gedeeltelijk bewolkt  
   Wind: ZZW 13 km/h
Wind: ZZW 13 km/h
Temperatuur: 14°C
Dauwpunt: 13°C
Vochtigheid: 94%
Barometer: 1023 hPa
Bewolking: Gedeeltelijk bewolkt
Zicht: meer dan 10 km
Bewolking: Gedeeltelijk bewolkt
EHBK 180625Z AUTO 21007KT 9999 NSC 14/13 Q1023 NOSIG
ELLX - Luxemburg
Gewijzigd: 18-08-2018 08:20
Helder  
Helder  
   Wind: Oosten 5.6 km/h
Wind: Oosten 5.6 km/h
Temperatuur: 15°C
Dauwpunt: 12°C
Vochtigheid: 82%
Barometer: 1023 hPa
Zicht: meer dan 10 km
Bewolking: Helder
ELLX 180620Z 08003KT 030V200 CAVOK 15/12 Q1023 NOSIG
EBOS - Oostende
Gewijzigd: 18-08-2018 08:20
Licht bewolkt  
Licht bewolkt  
   Wind: ZZW 14.8 km/h
Wind: ZZW 14.8 km/h
Temperatuur: 14°C
Dauwpunt: 12°C
Vochtigheid: 88%
Barometer: 1022 hPa
Bewolking: Licht bewolkt
Zicht: meer dan 10 km
Bewolking: Licht bewolkt 2000 ft
EBOS 180620Z 20008KT 9999 FEW020 14/12 Q1022 NOSIG

Script ontwikkeld door  Saratoga-weather.org Aangepast voor de template door  Weerstation Leuven

U vindt ons ook hier:

Het Weer Aktueel

European Weather Network

WeatherCloud

Weather Underground

Benelux Weer Netwerk

AWEKAS

Apparatuur in gebruik:

Weerstation
Davis VP2

Weerprogramma
Meteohub

Weercomputer
My Computer

Webleverancier
My provider

Davis VP2

Meteohub

My Computer

My provider